createdAt,value
2018-06-03T00:01:57.513Z,99.90
2018-06-03T00:04:27.608Z,86.10
2018-06-03T00:06:57.726Z,68.90
2018-06-03T00:09:27.923Z,60.50
2018-06-03T00:11:58.206Z,49.90
2018-06-03T00:14:28.513Z,34.90
2018-06-03T00:16:58.816Z,36.60
2018-06-03T00:19:28.941Z,55.20
2018-06-03T00:21:59.230Z,57.60
2018-06-03T00:24:28.648Z,60.40
2018-06-03T00:26:58.739Z,64.40
2018-06-03T00:29:29.310Z,79.30
2018-06-03T00:31:59.620Z,96.70
2018-06-03T00:34:29.904Z,99.90
2018-06-03T00:37:00.016Z,99.90
2018-06-03T00:39:31.067Z,99.90
2018-06-03T00:42:01.151Z,99.90
2018-06-03T00:44:31.482Z,99.90
2018-06-03T00:47:02.088Z,99.90
2018-06-03T00:49:32.180Z,99.90
2018-06-03T00:52:03.031Z,99.90
2018-06-03T00:54:34.075Z,99.90
2018-06-03T00:57:09.928Z,99.90
2018-06-03T00:59:39.699Z,99.90
2018-06-03T01:02:10.007Z,99.90
2018-06-03T01:04:40.303Z,99.90
2018-06-03T01:07:10.694Z,99.90
2018-06-03T01:09:40.998Z,99.90
2018-06-03T01:12:11.188Z,99.90
2018-06-03T01:14:42.261Z,99.90
2018-06-03T01:17:13.543Z,99.90
2018-06-03T01:19:43.617Z,91.60
2018-06-03T01:22:13.750Z,92.50
2018-06-03T01:24:43.829Z,76.10
2018-06-03T01:27:14.707Z,80.60
2018-06-03T01:29:44.808Z,80.00
2018-06-03T01:32:15.092Z,95.30
2018-06-03T01:34:45.959Z,99.90
2018-06-03T01:37:16.037Z,99.90
2018-06-03T01:39:46.113Z,96.00
2018-06-03T01:42:16.411Z,97.60
2018-06-03T01:44:46.495Z,99.90
2018-06-03T01:47:16.606Z,89.80
2018-06-03T01:49:46.718Z,85.30
2018-06-03T01:52:17.587Z,81.50
2018-06-03T01:54:48.123Z,94.70
2018-06-03T01:57:18.110Z,94.90
2018-06-03T01:59:48.395Z,91.10
2018-06-03T02:02:18.492Z,83.10
2018-06-03T02:04:48.601Z,87.80
2018-06-03T02:07:18.686Z,99.90
2018-06-03T02:09:48.966Z,94.90
2018-06-03T02:12:19.069Z,99.90
2018-06-03T02:14:49.328Z,99.90
2018-06-03T02:17:19.935Z,99.90
2018-06-03T02:19:50.006Z,99.90
2018-06-03T02:22:20.308Z,99.90
2018-06-03T02:24:50.856Z,99.90
2018-06-03T02:27:20.986Z,99.90
2018-06-03T02:29:52.048Z,99.90
2018-06-03T02:32:22.378Z,99.90
2018-06-03T02:34:52.551Z,99.90
2018-06-03T02:37:23.638Z,99.90
2018-06-03T02:39:53.910Z,99.90
2018-06-03T02:42:24.000Z,99.90
2018-06-03T02:44:54.088Z,99.90
2018-06-03T02:47:24.217Z,99.90
2018-06-03T02:49:54.316Z,99.90
2018-06-03T02:52:25.168Z,99.90
2018-06-03T02:54:55.439Z,99.90
2018-06-03T02:57:26.511Z,99.90
2018-06-03T02:59:56.841Z,99.90
2018-06-03T03:02:27.142Z,99.90
2018-06-03T03:04:57.238Z,99.90
2018-06-03T03:07:27.541Z,99.90
2018-06-03T03:09:57.630Z,99.90
2018-06-03T03:12:28.482Z,99.90
2018-06-03T03:14:59.585Z,99.90
2018-06-03T03:17:30.320Z,99.90
2018-06-03T03:20:01.203Z,99.90
2018-06-03T03:22:32.292Z,99.90
2018-06-03T03:25:02.375Z,99.90
2018-06-03T03:27:32.642Z,99.90
2018-06-03T03:30:03.233Z,99.90
2018-06-03T03:32:34.329Z,99.90
2018-06-03T03:35:04.088Z,99.90
2018-06-03T03:37:34.233Z,99.90
2018-06-03T03:40:03.984Z,99.90
2018-06-03T03:42:34.287Z,99.90
2018-06-03T03:45:05.147Z,99.90
2018-06-03T03:47:35.427Z,99.90
2018-06-03T03:50:05.217Z,99.90
2018-06-03T03:52:36.076Z,99.90
2018-06-03T03:55:06.236Z,99.90
2018-06-03T03:57:36.295Z,99.90
2018-06-03T04:00:06.300Z,99.90
2018-06-03T04:02:36.475Z,99.90
2018-06-03T04:05:06.747Z,99.90
2018-06-03T04:07:37.075Z,99.90
2018-06-03T04:10:06.830Z,99.90
2018-06-03T04:12:36.896Z,99.90
2018-06-03T04:15:07.188Z,99.90
2018-06-03T04:17:37.579Z,99.90
2018-06-03T04:20:07.675Z,99.90
2018-06-03T04:22:38.532Z,99.90
2018-06-03T04:25:08.606Z,99.90
2018-06-03T04:27:38.362Z,99.90
2018-06-03T04:30:08.639Z,99.90
2018-06-03T04:32:38.731Z,99.90
2018-06-03T04:35:09.299Z,99.90
2018-06-03T04:37:39.402Z,99.90
2018-06-03T04:40:09.543Z,99.90
2018-06-03T04:42:39.831Z,99.90
2018-06-03T04:45:09.923Z,94.90
2018-06-03T04:47:40.235Z,77.00
2018-06-03T04:50:11.099Z,73.30
2018-06-03T04:52:42.159Z,86.80
2018-06-03T04:55:12.531Z,87.30
2018-06-03T04:57:42.619Z,99.90
2018-06-03T05:00:12.675Z,99.90
2018-06-03T05:02:42.961Z,99.90
2018-06-03T05:05:13.045Z,70.70
2018-06-03T05:07:42.992Z,41.50
2018-06-03T05:10:13.067Z,1.00
2018-06-03T05:12:43.135Z,1.00
2018-06-03T05:15:13.963Z,1.00
2018-06-03T05:17:44.802Z,1.00
2018-06-03T05:20:15.632Z,1.00
2018-06-03T05:22:46.537Z,1.00
2018-06-03T05:25:17.399Z,1.00
2018-06-03T05:27:48.225Z,1.00
2018-06-03T05:30:19.069Z,1.00
2018-06-03T05:32:49.947Z,1.00
2018-06-03T05:35:21.052Z,1.00
2018-06-03T05:37:51.877Z,1.00
2018-06-03T05:40:22.661Z,1.00
2018-06-03T05:42:53.577Z,1.00
2018-06-03T05:45:24.419Z,1.00
2018-06-03T05:47:55.106Z,1.00
2018-06-03T05:50:25.741Z,1.00
2018-06-03T05:52:56.583Z,1.00
2018-06-03T05:55:27.217Z,1.00
2018-06-03T05:57:58.839Z,1.00
2018-06-03T06:00:29.450Z,1.00
2018-06-03T06:03:00.875Z,1.00
2018-06-03T06:05:31.536Z,1.00
2018-06-03T06:08:02.653Z,1.00
2018-06-03T06:10:33.290Z,1.00
2018-06-03T06:13:03.947Z,99.90
2018-06-03T06:15:35.375Z,99.90
2018-06-03T06:18:06.742Z,99.90
2018-06-03T06:20:37.386Z,99.90
2018-06-03T06:23:08.315Z,99.90
2018-06-03T06:25:38.954Z,99.90
2018-06-03T06:28:10.016Z,99.90
2018-06-03T06:30:40.667Z,99.90
2018-06-03T06:33:11.348Z,99.90
2018-06-03T06:35:42.200Z,99.90
2018-06-03T06:38:12.566Z,99.90
2018-06-03T06:40:42.971Z,99.90
2018-06-03T06:43:13.515Z,99.90
2018-06-03T06:45:44.171Z,99.90
2018-06-03T06:48:14.590Z,99.90
2018-06-03T06:50:44.955Z,99.90
2018-06-03T06:53:16.088Z,99.90
2018-06-03T06:55:46.737Z,99.90
2018-06-03T06:58:17.397Z,99.90
2018-06-03T07:00:48.241Z,99.90
2018-06-03T07:03:19.109Z,99.90
2018-06-03T07:05:49.951Z,99.90
2018-06-03T07:08:20.617Z,99.90
2018-06-03T07:10:52.511Z,99.90
2018-06-03T07:13:23.639Z,99.90
2018-06-03T07:15:54.470Z,99.90
2018-06-03T07:18:25.052Z,99.90
2018-06-03T07:20:55.883Z,99.90
2018-06-03T07:23:26.539Z,99.90
2018-06-03T07:25:57.147Z,99.90
2018-06-03T07:28:28.571Z,99.90
2018-06-03T07:30:59.508Z,99.90
2018-06-03T07:33:30.178Z,99.90
2018-06-03T07:36:00.895Z,99.90
2018-06-03T07:38:31.594Z,99.90
2018-06-03T07:41:02.264Z,99.90
2018-06-03T07:43:32.961Z,99.90
2018-06-03T07:46:03.832Z,99.90
2018-06-03T07:48:34.474Z,99.90
2018-06-03T07:51:04.830Z,99.90
2018-06-03T07:53:35.513Z,99.90
2018-06-03T07:56:06.228Z,99.90
2018-06-03T07:58:37.258Z,99.90
2018-06-03T08:01:07.927Z,99.90
2018-06-03T08:03:38.625Z,99.90
2018-06-03T08:06:09.600Z,99.90
2018-06-03T08:08:40.494Z,99.90
2018-06-03T08:11:11.357Z,99.90
2018-06-03T08:13:42.240Z,99.90
2018-06-03T08:16:14.155Z,99.90
2018-06-03T08:18:45.319Z,99.90
2018-06-03T08:21:16.251Z,99.90
2018-06-03T08:23:46.963Z,99.90
2018-06-03T08:26:18.386Z,99.90
2018-06-03T08:28:49.032Z,99.90
2018-06-03T08:31:20.654Z,99.90
2018-06-03T08:33:51.347Z,99.90
2018-06-03T08:36:22.181Z,99.90
2018-06-03T08:38:53.005Z,99.90
2018-06-03T08:41:23.755Z,99.90
2018-06-03T08:43:54.408Z,99.90
2018-06-03T08:46:25.105Z,99.90
2018-06-03T08:48:55.788Z,99.90
2018-06-03T08:51:26.428Z,99.90
2018-06-03T08:53:57.177Z,99.90
2018-06-03T08:56:27.860Z,99.90
2018-06-03T08:58:59.296Z,99.90
2018-06-03T09:01:30.226Z,99.90
2018-06-03T09:04:01.039Z,99.90
2018-06-03T09:06:32.429Z,99.90
2018-06-03T09:09:02.878Z,99.90
2018-06-03T09:11:33.593Z,99.90
2018-06-03T09:14:04.448Z,99.90
2018-06-03T09:16:36.192Z,99.90
2018-06-03T09:19:06.898Z,99.90
2018-06-03T09:21:38.637Z,99.90
2018-06-03T09:24:09.281Z,99.90
2018-06-03T09:26:40.084Z,99.90
2018-06-03T09:29:11.492Z,99.90
2018-06-03T09:31:42.352Z,99.90
2018-06-03T09:34:13.203Z,99.90
2018-06-03T09:36:43.965Z,99.90
2018-06-03T09:39:14.926Z,99.90
2018-06-03T09:41:46.651Z,99.90
2018-06-03T09:44:17.335Z,99.90
2018-06-03T09:46:47.906Z,99.90
2018-06-03T09:49:19.404Z,99.90
2018-06-03T09:51:50.052Z,99.90
2018-06-03T09:54:20.704Z,99.90
2018-06-03T09:56:51.608Z,99.90
2018-06-03T09:59:22.308Z,99.90
2018-06-03T10:01:53.285Z,99.90
2018-06-03T10:04:24.235Z,99.90
2018-06-03T10:06:55.400Z,99.90
2018-06-03T10:09:26.593Z,99.90
2018-06-03T10:11:57.158Z,99.90
2018-06-03T10:14:27.575Z,99.90
2018-06-03T10:16:57.927Z,99.90
2018-06-03T10:19:28.492Z,99.90
2018-06-03T10:21:59.238Z,99.90
2018-06-03T10:24:29.567Z,99.90
2018-06-03T10:26:59.945Z,99.90
2018-06-03T10:29:30.498Z,99.90
2018-06-03T10:32:01.658Z,99.90
2018-06-03T10:34:32.239Z,99.90
2018-06-03T10:37:02.890Z,99.90
2018-06-03T10:39:33.261Z,99.90
2018-06-03T10:42:03.628Z,99.90
2018-06-03T10:44:34.267Z,99.90
2018-06-03T10:47:04.629Z,99.90
2018-06-03T10:49:34.985Z,99.90
2018-06-03T10:52:05.039Z,99.90
2018-06-03T10:54:35.392Z,99.90
2018-06-03T10:57:06.412Z,99.90
2018-06-03T10:59:36.988Z,99.90
2018-06-03T11:02:07.240Z,99.90
2018-06-03T11:04:38.708Z,99.90
2018-06-03T11:07:09.311Z,99.90
2018-06-03T11:09:39.666Z,99.90
2018-06-03T11:12:11.342Z,99.90
2018-06-03T11:14:42.199Z,99.90
2018-06-03T11:17:12.875Z,99.90
2018-06-03T11:19:43.585Z,99.90
2018-06-03T11:22:14.244Z,99.90
2018-06-03T11:24:45.847Z,99.90
2018-06-03T11:27:16.813Z,99.90
2018-06-03T11:29:47.501Z,99.90
2018-06-03T11:32:18.161Z,99.90
2018-06-03T11:34:48.831Z,99.90
2018-06-03T11:37:20.244Z,99.90
2018-06-03T11:39:50.935Z,99.90
2018-06-03T11:42:21.595Z,99.90
2018-06-03T11:44:53.844Z,99.90
2018-06-03T11:47:24.698Z,99.90
2018-06-03T11:49:56.276Z,99.90
2018-06-03T11:52:28.650Z,99.90
2018-06-03T11:54:59.503Z,99.90
2018-06-03T11:57:44.616Z,99.90
2018-06-03T12:00:20.002Z,99.90
2018-06-03T12:02:54.072Z,99.90
2018-06-03T12:05:27.134Z,99.90
2018-06-03T12:07:57.935Z,99.90
2018-06-03T12:10:30.807Z,99.90
2018-06-03T12:13:02.024Z,99.90
2018-06-03T12:15:33.248Z,99.90
2018-06-03T12:18:05.286Z,99.90
2018-06-03T12:20:37.727Z,99.90
2018-06-03T12:23:08.432Z,99.90
2018-06-03T12:25:39.112Z,99.90
2018-06-03T12:28:11.851Z,99.90
2018-06-03T12:30:44.108Z,99.90
2018-06-03T12:33:15.008Z,99.90
2018-06-03T12:35:45.843Z,99.90
2018-06-03T12:38:17.749Z,99.90
2018-06-03T12:40:50.093Z,99.90
2018-06-03T12:43:21.776Z,99.90
2018-06-03T12:45:52.884Z,99.90
2018-06-03T12:48:25.471Z,99.90
2018-06-03T12:50:57.085Z,99.90
2018-06-03T12:53:29.452Z,99.90
2018-06-03T12:56:00.156Z,99.90
2018-06-03T12:58:32.490Z,99.90
2018-06-03T13:01:05.373Z,99.90
2018-06-03T13:03:36.019Z,99.90
2018-06-03T13:06:06.341Z,99.90
2018-06-03T13:08:37.126Z,99.90
2018-06-03T13:11:07.781Z,99.90
2018-06-03T13:13:38.415Z,99.90
2018-06-03T13:16:09.112Z,99.90
2018-06-03T13:18:39.955Z,99.90
2018-06-03T13:21:10.608Z,99.90
2018-06-03T13:23:41.855Z,99.90
2018-06-03T13:26:12.727Z,99.90
2018-06-03T13:28:43.592Z,99.90
2018-06-03T13:31:14.245Z,99.90
2018-06-03T13:33:44.911Z,99.90
2018-06-03T13:36:17.194Z,99.90
2018-06-03T13:38:47.901Z,99.90
2018-06-03T13:41:18.841Z,99.90
2018-06-03T13:43:49.542Z,99.90
2018-06-03T13:46:20.223Z,99.90
2018-06-03T13:48:50.884Z,99.90
2018-06-03T13:51:21.795Z,99.90
2018-06-03T13:53:52.628Z,99.90
2018-06-03T13:56:23.586Z,99.90
2018-06-03T13:58:54.244Z,99.90
2018-06-03T14:01:24.905Z,99.90
2018-06-03T14:03:55.561Z,99.90
2018-06-03T14:06:26.290Z,99.90
2018-06-03T14:08:57.916Z,99.90
2018-06-03T14:11:28.865Z,99.90
2018-06-03T14:13:59.736Z,99.90
2018-06-03T14:16:30.442Z,99.90
2018-06-03T14:19:01.916Z,99.90
2018-06-03T14:21:33.341Z,99.90
2018-06-03T14:24:04.246Z,99.90
2018-06-03T14:26:35.172Z,99.90
2018-06-03T14:29:05.835Z,99.90
2018-06-03T14:31:36.699Z,99.90
2018-06-03T14:34:07.400Z,99.90
2018-06-03T14:36:38.841Z,99.90
2018-06-03T16:53:30.856Z,99.90
2018-06-03T17:05:43.636Z,99.90
2018-06-03T17:20:57.166Z,99.90
2018-06-03T17:32:48.537Z,99.90
2018-06-03T17:38:47.052Z,99.90
2018-06-03T17:53:51.821Z,99.90
2018-06-03T17:59:56.361Z,99.90
2018-06-03T18:02:33.394Z,99.90
2018-06-03T18:11:27.598Z,99.90
2018-06-03T18:20:44.718Z,99.90
2018-06-03T18:32:45.393Z,1.00
2018-06-03T18:41:56.800Z,1.00
2018-06-03T18:50:53.487Z,1.00
2018-06-03T18:53:24.977Z,1.00
2018-06-03T19:11:45.370Z,1.00
2018-06-03T19:36:14.412Z,1.00
2018-06-03T19:51:23.032Z,1.00
2018-06-03T19:53:55.257Z,1.00
2018-06-03T19:59:44.682Z,1.00
2018-06-03T20:26:56.280Z,1.00
2018-06-03T20:36:30.679Z,1.00
2018-06-03T20:42:31.874Z,1.00
2018-06-03T20:58:46.014Z,1.00
2018-06-03T21:01:18.120Z,1.00
2018-06-03T21:16:44.122Z,1.00
2018-06-03T21:50:11.193Z,1.00
2018-06-03T21:55:52.086Z,1.00
2018-06-03T21:58:42.490Z,1.00
2018-06-03T22:17:18.312Z,1.00
2018-06-03T22:19:48.553Z,1.00
2018-06-03T22:22:42.827Z,1.00
2018-06-03T22:28:29.865Z,1.00
2018-06-03T22:40:37.172Z,1.00
2018-06-03T22:46:42.828Z,1.00
2018-06-03T22:49:41.407Z,1.00
2018-06-03T23:04:36.291Z,1.00
2018-06-03T23:16:35.472Z,1.00
2018-06-03T23:19:07.339Z,1.00
2018-06-03T23:21:38.146Z,1.00
2018-06-03T23:24:20.299Z,1.00
2018-06-03T23:33:50.292Z,1.00
2018-06-03T23:36:20.813Z,1.00
2018-06-03T23:38:52.723Z,1.00
2018-06-03T23:41:23.595Z,1.00
2018-06-03T23:50:06.950Z,1.00
2018-06-03T23:58:53.621Z,1.00
